Time;durP1;ratioP1;P1;durP2;ratioP2;P2;SDS_P1;SDS_P2;PMS_P1;PMS_P2;Temp;Humidity;BMP_temperature;BMP_pressure;BME280_temperature;BME280_humidity;BME280_pressure;Samples;Min_cycle;Max_cycle;Signal;HPM_P1;HPM_P2
2021/10/24 00:01:30;;;;;;;16.10;6.70;;;14.00;81.00;;;;;;4954054;28;20381;-79
2021/10/24 00:03:56;;;;;;;14.63;6.45;;;14.00;80.90;;;;;;4954031;28;20029;-79
2021/10/24 00:06:22;;;;;;;14.70;6.60;;;14.00;80.80;;;;;;4953590;28;20380;-79
2021/10/24 00:08:47;;;;;;;11.57;6.57;;;14.00;80.80;;;;;;4956085;29;20019;-79
2021/10/24 00:11:13;;;;;;;15.30;6.63;;;14.00;80.70;;;;;;4957510;29;20027;-80
2021/10/24 00:13:38;;;;;;;13.43;6.65;;;14.00;80.80;;;;;;4957318;28;20023;-79
2021/10/24 00:16:04;;;;;;;13.80;6.53;;;14.00;80.70;;;;;;4956193;29;20027;-79
2021/10/24 00:18:29;;;;;;;13.77;6.30;;;14.00;80.70;;;;;;4955821;29;20058;-79
2021/10/24 00:20:56;;;;;;;14.25;6.57;;;14.00;80.70;;;;;;4956309;29;20034;-79
2021/10/24 00:23:21;;;;;;;13.10;6.25;;;14.00;80.80;;;;;;4956097;28;20105;-79
2021/10/24 00:25:47;;;;;;;17.02;5.95;;;14.00;80.80;;;;;;4956115;29;20071;-78
2021/10/24 00:28:13;;;;;;;14.07;6.25;;;14.00;80.90;;;;;;4955745;29;20027;-78
2021/10/24 00:30:39;;;;;;;15.80;6.55;;;14.00;80.90;;;;;;4955804;29;20033;-79
2021/10/24 00:33:05;;;;;;;13.50;6.28;;;13.90;81.00;;;;;;4957035;28;20110;-79
2021/10/24 00:35:32;;;;;;;18.95;6.28;;;13.90;81.00;;;;;;4955723;29;20034;-79
2021/10/24 00:37:58;;;;;;;13.88;6.40;;;13.90;81.10;;;;;;4955633;29;20059;-79
2021/10/24 00:40:23;;;;;;;12.30;5.55;;;13.90;81.10;;;;;;4955642;29;20031;-79
2021/10/24 00:42:52;;;;;;;15.38;6.38;;;13.90;81.30;;;;;;4955559;28;20387;-80
2021/10/24 00:45:25;;;;;;;13.35;6.20;;;13.90;81.30;;;;;;4956902;28;20019;-79
2021/10/24 00:47:52;;;;;;;14.63;5.95;;;13.90;81.30;;;;;;4955514;29;20023;-79
2021/10/24 00:50:19;;;;;;;17.63;6.10;;;13.90;81.40;;;;;;4956700;28;20023;-79
2021/10/24 00:52:46;;;;;;;14.77;5.78;;;13.90;81.40;;;;;;4956590;28;20429;-79
2021/10/24 00:55:12;;;;;;;14.38;5.88;;;13.90;81.40;;;;;;4956733;28;20026;-78
2021/10/24 00:57:39;;;;;;;16.80;5.97;;;13.90;81.40;;;;;;4955185;29;20118;-79
2021/10/24 01:00:10;;;;;;;16.50;5.63;;;13.90;81.50;;;;;;4955280;29;20019;-79
2021/10/24 01:02:37;;;;;;;17.05;6.10;;;13.90;81.40;;;;;;4955251;28;20043;-78
2021/10/24 01:05:05;;;;;;;12.70;5.15;;;13.90;81.40;;;;;;4955404;29;20026;-78
2021/10/24 01:07:32;;;;;;;12.90;5.50;;;13.90;81.50;;;;;;4955036;29;20114;-78
2021/10/24 01:09:59;;;;;;;17.20;6.18;;;13.90;81.50;;;;;;4955092;29;20020;-78
2021/10/24 01:12:25;;;;;;;20.70;6.30;;;13.80;81.50;;;;;;4955246;28;20027;-78
2021/10/24 01:14:50;;;;;;;14.13;5.70;;;13.90;81.50;;;;;;4956251;28;20026;-78
2021/10/24 01:17:16;;;;;;;17.80;5.75;;;13.90;81.60;;;;;;4954618;28;20027;-77
2021/10/24 01:19:41;;;;;;;18.52;5.53;;;13.90;81.50;;;;;;4956095;29;20048;-78
2021/10/24 01:22:07;;;;;;;15.85;5.45;;;13.90;81.50;;;;;;4954749;28;20067;-78
2021/10/24 01:24:32;;;;;;;16.17;5.47;;;13.90;81.50;;;;;;4956156;29;20031;-78
2021/10/24 01:26:59;;;;;;;15.18;5.75;;;13.90;81.50;;;;;;4954844;29;20456;-78
2021/10/24 01:29:25;;;;;;;16.13;5.47;;;13.90;81.50;;;;;;4954477;29;20051;-78
2021/10/24 01:31:51;;;;;;;19.15;6.13;;;13.90;81.50;;;;;;4954661;29;20027;-78
2021/10/24 01:34:17;;;;;;;17.48;5.47;;;13.90;81.50;;;;;;4954679;28;20135;-79
2021/10/24 01:36:43;;;;;;;15.10;6.03;;;13.90;81.50;;;;;;4954706;29;20051;-78
2021/10/24 01:39:09;;;;;;;15.35;5.65;;;13.80;81.40;;;;;;4954492;29;20469;-78
2021/10/24 01:41:34;;;;;;;18.08;5.72;;;13.90;81.50;;;;;;4955668;28;20034;-78
2021/10/24 01:44:00;;;;;;;19.20;5.60;;;13.90;81.50;;;;;;4955682;28;20023;-78
2021/10/24 01:46:26;;;;;;;13.48;5.05;;;13.90;81.50;;;;;;4954610;29;20607;-78
2021/10/24 01:48:52;;;;;;;17.25;5.55;;;13.80;81.40;;;;;;4954321;29;20192;-78
2021/10/24 01:51:17;;;;;;;15.60;5.63;;;13.80;81.40;;;;;;4955481;29;20075;-78
2021/10/24 01:53:45;;;;;;;15.50;5.22;;;13.90;81.50;;;;;;4954574;28;20374;-78
2021/10/24 01:56:11;;;;;;;14.40;5.72;;;13.90;81.40;;;;;;4954264;29;20023;-78
2021/10/24 01:58:37;;;;;;;15.85;4.97;;;13.90;81.50;;;;;;4954220;29;20026;-78
2021/10/24 02:01:05;;;;;;;12.77;5.00;;;13.90;81.40;;;;;;4954346;29;20029;-78
2021/10/24 02:03:31;;;;;;;24.05;6.68;;;13.80;81.40;;;;;;5009319;23;20089;-74
2021/10/24 02:05:56;;;;;;;15.13;5.63;;;13.90;81.50;;;;;;4953111;29;20028;-74
2021/10/24 02:08:22;;;;;;;16.75;5.75;;;13.80;81.40;;;;;;4953099;29;20028;-74
2021/10/24 02:10:48;;;;;;;16.40;5.93;;;13.90;81.50;;;;;;4954580;28;20539;-74
2021/10/24 02:13:14;;;;;;;17.50;5.30;;;13.90;81.50;;;;;;4948269;28;20028;-74
2021/10/24 02:15:40;;;;;;;16.13;5.78;;;13.80;81.40;;;;;;4934158;29;20481;-74
2021/10/24 02:18:07;;;;;;;12.60;5.57;;;13.80;81.40;;;;;;4935093;29;20063;-74
2021/10/24 02:20:34;;;;;;;15.85;4.90;;;13.80;81.40;;;;;;4935146;29;20023;-74
2021/10/24 02:23:01;;;;;;;17.75;5.32;;;13.90;81.40;;;;;;4934062;29;20102;-75
2021/10/24 02:25:28;;;;;;;17.02;5.30;;;13.80;81.40;;;;;;4928513;29;20485;-73
2021/10/24 02:27:54;;;;;;;11.55;5.57;;;13.80;81.30;;;;;;4932133;29;20032;-75
2021/10/24 02:30:19;;;;;;;13.68;5.60;;;13.80;81.40;;;;;;4953604;28;20019;-75
2021/10/24 02:32:45;;;;;;;13.93;5.05;;;13.80;81.40;;;;;;4954158;28;20059;-75
2021/10/24 02:35:12;;;;;;;14.15;5.63;;;13.80;81.30;;;;;;4953116;29;20020;-75
2021/10/24 02:37:39;;;;;;;11.90;4.93;;;13.90;81.40;;;;;;4953888;28;20135;-74
2021/10/24 02:40:06;;;;;;;10.98;4.97;;;13.90;81.40;;;;;;4952971;29;20015;-75
2021/10/24 02:42:32;;;;;;;15.48;5.00;;;13.90;81.30;;;;;;4952756;28;20069;-74
2021/10/24 02:44:58;;;;;;;12.00;4.65;;;13.90;81.90;;;;;;4954169;28;20023;-74
2021/10/24 02:47:23;;;;;;;12.68;5.45;;;13.90;81.20;;;;;;4953918;28;20012;-74
2021/10/24 02:49:49;;;;;;;11.50;4.88;;;13.90;81.20;;;;;;4953710;29;20026;-74
2021/10/24 02:52:15;;;;;;;10.43;5.00;;;13.90;81.20;;;;;;4952862;28;20110;-75
2021/10/24 02:54:41;;;;;;;13.43;5.13;;;13.90;81.20;;;;;;4952721;28;20034;-76
2021/10/24 02:57:07;;;;;;;12.77;5.25;;;13.90;81.20;;;;;;4952608;29;20721;-77
2021/10/24 02:59:33;;;;;;;12.55;5.35;;;13.90;81.10;;;;;;4953837;28;20385;-74
2021/10/24 03:01:59;;;;;;;11.32;4.85;;;13.90;81.20;;;;;;4952671;29;20434;-75
2021/10/24 03:04:25;;;;;;;11.90;4.93;;;13.90;81.10;;;;;;4952484;28;20388;-75
2021/10/24 03:06:50;;;;;;;11.38;4.65;;;13.90;81.10;;;;;;4953885;28;20016;-75
2021/10/24 03:09:16;;;;;;;11.05;5.13;;;13.90;81.10;;;;;;4952493;29;20070;-74
2021/10/24 03:11:42;;;;;;;8.60;4.65;;;13.90;81.10;;;;;;4952659;29;20028;-75
2021/10/24 03:14:08;;;;;;;11.60;5.10;;;13.90;81.10;;;;;;4952604;28;20057;-74
2021/10/24 03:16:34;;;;;;;9.20;5.18;;;13.90;81.10;;;;;;4953845;28;20081;-75
2021/10/24 03:19:00;;;;;;;11.23;5.18;;;13.90;81.00;;;;;;4953461;28;20354;-73
2021/10/24 03:21:25;;;;;;;10.02;5.00;;;13.90;81.10;;;;;;4952572;29;20030;-74
2021/10/24 03:23:51;;;;;;;10.10;4.88;;;13.90;81.00;;;;;;4953696;28;20023;-74
2021/10/24 03:26:17;;;;;;;11.40;5.35;;;13.90;81.20;;;;;;4952604;28;20030;-74
2021/10/24 03:28:42;;;;;;;9.18;4.95;;;13.80;81.20;;;;;;4952235;29;20020;-74
2021/10/24 03:31:08;;;;;;;10.20;5.00;;;13.80;81.30;;;;;;4953855;29;20501;-74
2021/10/24 03:33:33;;;;;;;8.85;4.88;;;13.80;81.40;;;;;;4952353;28;20023;-74
2021/10/24 03:35:59;;;;;;;11.35;5.45;;;13.80;81.40;;;;;;4953803;29;20057;-74
2021/10/24 03:38:24;;;;;;;17.02;5.32;;;13.80;81.40;;;;;;4952323;28;20031;-74
2021/10/24 03:40:50;;;;;;;10.95;4.82;;;13.80;81.50;;;;;;4955010;28;20078;-74
2021/10/24 03:43:15;;;;;;;15.05;5.03;;;13.80;81.50;;;;;;4956062;28;20029;-74
2021/10/24 03:45:41;;;;;;;12.75;5.20;;;13.80;81.50;;;;;;4957243;28;20030;-75
2021/10/24 03:48:07;;;;;;;12.95;5.03;;;13.80;81.40;;;;;;4955705;28;20022;-74
2021/10/24 03:50:33;;;;;;;13.43;5.40;;;13.80;81.40;;;;;;4955787;28;20061;-74
2021/10/24 03:52:59;;;;;;;12.23;4.75;;;13.80;81.50;;;;;;4955807;28;20503;-74
2021/10/24 03:55:25;;;;;;;10.88;4.72;;;13.70;81.40;;;;;;4955874;29;20114;-74
2021/10/24 03:57:50;;;;;;;11.88;4.90;;;13.80;81.40;;;;;;4955540;29;20444;-74
2021/10/24 04:00:16;;;;;;;11.13;4.68;;;13.80;81.40;;;;;;4955685;28;20118;-74
2021/10/24 04:02:54;;;;;;;8.98;4.97;;;13.80;81.40;;;;;;4955421;28;20073;-74
2021/10/24 04:05:20;;;;;;;12.90;5.35;;;13.70;81.40;;;;;;4956928;28;20020;-74
2021/10/24 04:07:48;;;;;;;15.88;5.15;;;13.80;81.40;;;;;;4955371;28;20015;-74
2021/10/24 04:10:14;;;;;;;9.77;4.80;;;13.80;81.30;;;;;;4956729;28;20476;-75
2021/10/24 04:12:40;;;;;;;9.55;4.50;;;13.70;81.30;;;;;;4956651;28;20073;-74
2021/10/24 04:15:06;;;;;;;13.02;5.30;;;13.80;81.30;;;;;;4955446;28;20098;-74
2021/10/24 04:17:31;;;;;;;15.00;5.20;;;13.80;81.80;;;;;;4956432;28;20029;-74
2021/10/24 04:19:57;;;;;;;9.77;4.80;;;13.80;81.30;;;;;;4955429;29;20440;-74
2021/10/24 04:22:22;;;;;;;9.15;4.68;;;13.80;81.30;;;;;;4955217;29;20350;-74
2021/10/24 04:24:48;;;;;;;10.65;4.97;;;13.80;81.30;;;;;;4954280;28;20075;-74
2021/10/24 04:27:13;;;;;;;12.07;5.07;;;13.80;81.30;;;;;;4935790;29;20074;-74
2021/10/24 04:29:39;;;;;;;11.70;4.57;;;13.80;81.30;;;;;;4942822;29;20023;-74
2021/10/24 04:32:04;;;;;;;9.35;4.60;;;13.80;81.30;;;;;;4956353;29;20036;-74
2021/10/24 04:34:30;;;;;;;9.82;4.40;;;13.80;81.20;;;;;;4956454;28;20027;-75
2021/10/24 04:36:56;;;;;;;12.55;4.43;;;13.80;81.20;;;;;;4955049;28;20026;-74
2021/10/24 04:39:21;;;;;;;26.85;5.15;;;13.80;81.20;;;;;;4951363;28;20027;-74
2021/10/24 04:41:47;;;;;;;23.05;4.90;;;13.70;81.20;;;;;;4940258;29;20023;-74
2021/10/24 04:44:12;;;;;;;19.48;5.40;;;13.80;81.20;;;;;;4955990;28;20026;-74
2021/10/24 04:46:38;;;;;;;13.73;4.95;;;13.80;81.20;;;;;;4955793;29;20355;-72
2021/10/24 04:49:04;;;;;;;11.20;4.03;;;13.70;81.10;;;;;;4951459;28;20102;-76
2021/10/24 04:51:29;;;;;;;15.35;4.75;;;13.80;81.10;;;;;;4949099;28;20027;-76
2021/10/24 04:53:55;;;;;;;13.20;4.55;;;13.70;80.60;;;;;;4924083;28;20146;-74
2021/10/24 04:56:21;;;;;;;14.70;4.57;;;13.70;80.30;;;;;;4931015;29;20056;-72
2021/10/24 04:58:47;;;;;;;11.30;4.70;;;13.60;80.50;;;;;;4946000;29;20085;-74
2021/10/24 05:01:12;;;;;;;12.23;4.53;;;13.70;80.60;;;;;;4950126;28;20038;-75
2021/10/24 05:03:38;;;;;;;12.40;4.72;;;13.70;80.70;;;;;;4949953;28;20046;-76
2021/10/24 05:06:05;;;;;;;8.30;4.40;;;13.70;80.70;;;;;;4948170;28;20119;-74
2021/10/24 05:08:31;;;;;;;11.18;4.40;;;13.70;80.70;;;;;;4929660;29;20039;-73
2021/10/24 05:10:56;;;;;;;8.45;4.28;;;13.70;80.80;;;;;;4930019;29;20032;-76
2021/10/24 05:13:22;;;;;;;9.98;5.05;;;13.70;80.80;;;;;;4930852;29;20510;-74
2021/10/24 05:15:47;;;;;;;11.80;4.57;;;13.70;80.80;;;;;;4931067;29;20802;-74
2021/10/24 05:18:13;;;;;;;11.15;4.07;;;13.70;80.80;;;;;;4929698;29;20109;-73
2021/10/24 05:20:39;;;;;;;11.52;4.90;;;13.70;80.80;;;;;;4930956;29;20835;-73
2021/10/24 05:23:05;;;;;;;10.77;4.30;;;13.70;81.30;;;;;;4929325;29;20040;-73
2021/10/24 05:25:31;;;;;;;8.25;4.22;;;13.70;80.90;;;;;;4928795;29;20518;-74
2021/10/24 05:27:58;;;;;;;7.93;4.13;;;13.70;80.90;;;;;;4930082;29;20042;-74
2021/10/24 05:33:46;;;;;;;9.93;5.15;;;13.80;80.80;;;;;;4924239;29;20046;-81
2021/10/24 05:36:11;;;;;;;9.73;5.30;;;13.70;72.30;;;;;;4937110;29;20043;-79
2021/10/24 05:38:37;;;;;;;11.10;6.20;;;13.50;68.60;;;;;;4936332;29;20020;-79
2021/10/24 05:41:03;;;;;;;12.93;6.82;;;13.40;65.90;;;;;;4951528;28;20593;-79
2021/10/24 05:43:29;;;;;;;12.30;7.53;;;13.30;65.00;;;;;;4937102;29;20027;-79
2021/10/24 05:45:54;;;;;;;14.07;6.65;;;13.20;65.70;;;;;;4936464;29;20107;-79
2021/10/24 05:48:20;;;;;;;13.85;6.78;;;13.30;67.40;;;;;;4937172;29;20516;-80
2021/10/24 05:50:46;;;;;;;12.13;6.25;;;13.30;68.50;;;;;;4936712;29;20028;-80
2021/10/24 05:53:11;;;;;;;13.77;6.43;;;13.40;69.40;;;;;;4936181;29;20236;-78
2021/10/24 05:55:37;;;;;;;14.57;6.05;;;13.50;70.30;;;;;;4937140;29;20122;-81
2021/10/24 05:58:03;;;;;;;15.65;6.55;;;13.50;70.90;;;;;;4935072;29;20093;-80
2021/10/24 06:00:30;;;;;;;11.82;5.65;;;13.50;71.40;;;;;;4920795;29;20036;-79
2021/10/24 06:02:55;;;;;;;13.23;5.45;;;13.50;71.80;;;;;;4931890;29;20031;-78
2021/10/24 06:05:21;;;;;;;14.55;6.07;;;13.60;72.30;;;;;;4916424;29;20032;-79
2021/10/24 06:07:48;;;;;;;11.70;5.35;;;13.50;72.60;;;;;;4934746;29;20032;-80
2021/10/24 06:20:16;;;;;;;9.75;5.25;;;13.50;75.00;;;;;;4955512;28;20039;-83
2021/10/24 06:22:43;;;;;;;10.80;4.93;;;13.50;75.50;;;;;;4896769;29;20084;-81
2021/10/24 06:25:10;;;;;;;9.77;5.10;;;13.50;75.60;;;;;;4891491;29;20049;-81
2021/10/24 17:51:24;;;;;;;7.72;2.53;;;14.10;75.80;;;;;;4844068;29;20087;-75
2021/10/24 17:53:49;;;;;;;5.70;2.40;;;14.10;76.50;;;;;;4870759;29;20110;-75
2021/10/24 17:56:15;;;;;;;6.25;2.58;;;14.10;76.90;;;;;;4868174;29;20022;-78
2021/10/24 17:58:40;;;;;;;7.63;2.95;;;14.10;77.20;;;;;;4877855;29;20120;-74
2021/10/24 18:01:07;;;;;;;9.63;2.97;;;14.10;77.40;;;;;;4893477;29;20128;-74
2021/10/24 18:03:34;;;;;;;22.58;4.20;;;14.10;77.70;;;;;;4880672;29;20399;-77
2021/10/24 18:05:59;;;;;;;25.17;4.30;;;14.10;78.00;;;;;;4878975;29;20380;-77
2021/10/24 18:08:25;;;;;;;13.63;3.75;;;14.10;78.10;;;;;;4872946;29;20029;-77
2021/10/24 18:10:51;;;;;;;12.60;3.38;;;14.10;78.20;;;;;;4874929;29;20026;-77
2021/10/24 18:13:17;;;;;;;10.35;3.50;;;14.10;78.40;;;;;;4860674;29;20030;-78
2021/10/24 18:15:43;;;;;;;10.68;4.00;;;14.10;78.50;;;;;;4875282;29;20479;-77
2021/10/24 18:18:10;;;;;;;11.52;4.18;;;14.10;78.50;;;;;;4874859;29;20026;-77
2021/10/24 18:20:35;;;;;;;11.57;4.45;;;14.10;78.60;;;;;;4859396;29;20457;-77
2021/10/24 18:23:01;;;;;;;10.15;4.90;;;14.10;78.70;;;;;;4860758;29;20026;-77
2021/10/24 18:25:27;;;;;;;12.68;5.03;;;14.10;78.70;;;;;;4874941;29;20376;-76
2021/10/24 18:27:52;;;;;;;11.73;4.63;;;14.10;78.80;;;;;;4859560;29;20025;-76
2021/10/24 18:30:18;;;;;;;8.93;4.72;;;14.10;78.90;;;;;;4874524;29;20029;-76
2021/10/24 18:32:43;;;;;;;14.55;5.45;;;14.10;79.00;;;;;;4875470;29;20093;-77
2021/10/24 18:35:10;;;;;;;15.38;4.97;;;14.20;79.10;;;;;;4860433;29;20096;-78
2021/10/24 18:37:35;;;;;;;17.23;5.63;;;14.20;79.30;;;;;;4874736;29;20440;-77
2021/10/24 18:40:01;;;;;;;14.25;5.50;;;14.10;79.30;;;;;;4874302;29;20186;-78
2021/10/24 18:42:27;;;;;;;10.23;5.25;;;14.10;79.30;;;;;;4860400;29;20034;-75
2021/10/24 18:44:53;;;;;;;13.90;5.40;;;14.10;79.40;;;;;;4860417;29;20021;-76
2021/10/24 18:47:19;;;;;;;10.60;4.93;;;14.20;79.50;;;;;;4860393;29;20034;-75
2021/10/24 18:49:46;;;;;;;14.52;4.90;;;14.10;79.50;;;;;;4858823;29;20026;-76
2021/10/24 18:52:12;;;;;;;12.40;5.55;;;14.10;79.60;;;;;;4874962;29;20117;-76
2021/10/24 18:54:37;;;;;;;10.68;5.22;;;14.10;79.50;;;;;;4859144;29;20456;-74
2021/10/24 18:57:03;;;;;;;10.70;4.75;;;14.10;79.60;;;;;;4874035;29;20029;-74
2021/10/24 18:59:29;;;;;;;11.38;5.35;;;14.10;79.50;;;;;;4859614;29;20025;-77
2021/10/24 19:01:55;;;;;;;9.63;4.75;;;14.10;79.50;;;;;;4874292;29;20124;-76
2021/10/24 19:04:21;;;;;;;10.88;4.85;;;14.10;79.60;;;;;;4860223;29;20036;-76
2021/10/24 19:06:47;;;;;;;10.95;4.75;;;14.10;79.60;;;;;;4860248;29;20029;-76
2021/10/24 19:09:13;;;;;;;7.82;4.70;;;14.10;79.70;;;;;;4858563;29;20548;-76
2021/10/24 19:11:38;;;;;;;12.25;5.30;;;14.10;79.60;;;;;;4875792;29;20065;-75
2021/10/24 19:14:05;;;;;;;9.77;5.00;;;14.20;79.60;;;;;;4878751;29;20032;-74
2021/10/24 19:16:31;;;;;;;10.90;4.85;;;14.10;79.40;;;;;;4878565;29;20034;-76
2021/10/24 19:18:56;;;;;;;9.35;5.18;;;14.10;79.30;;;;;;4877428;29;20479;-76
2021/10/24 19:21:22;;;;;;;11.32;5.32;;;14.20;79.40;;;;;;4878179;29;20559;-77
2021/10/24 19:23:48;;;;;;;10.50;4.88;;;14.20;79.10;;;;;;4864001;29;20081;-76
2021/10/24 19:26:14;;;;;;;10.57;4.50;;;14.20;78.90;;;;;;4862754;29;20069;-76
2021/10/24 19:28:40;;;;;;;10.63;4.85;;;14.20;78.60;;;;;;4863536;29;20018;-75
2021/10/24 19:31:07;;;;;;;11.77;5.07;;;14.20;78.50;;;;;;4878476;29;20505;-76
2021/10/24 19:33:35;;;;;;;8.85;4.30;;;14.20;78.30;;;;;;4863982;29;20036;-77
2021/10/24 19:36:02;;;;;;;8.75;4.80;;;14.20;78.50;;;;;;4878261;29;20025;-76
2021/10/24 19:38:31;;;;;;;8.05;4.57;;;14.20;78.80;;;;;;4877913;29;20037;-74
2021/10/24 19:40:57;;;;;;;9.52;5.00;;;14.20;77.90;;;;;;4862442;29;20058;-76
2021/10/24 19:43:24;;;;;;;11.48;4.40;;;14.20;77.80;;;;;;4864243;29;20030;-75
2021/10/24 19:45:51;;;;;;;8.55;4.10;;;14.20;77.70;;;;;;4862581;29;20518;-77
2021/10/24 19:48:18;;;;;;;9.48;4.30;;;14.20;77.70;;;;;;4878126;29;20025;-74
2021/10/24 19:50:45;;;;;;;8.93;3.88;;;14.20;77.70;;;;;;4877935;29;20030;-75
2021/10/24 19:53:11;;;;;;;7.85;3.03;;;14.10;76.90;;;;;;4878284;29;20403;-75
2021/10/24 19:55:37;;;;;;;10.32;2.90;;;14.00;70.10;;;;;;4878115;29;20041;-76
2021/10/24 19:58:05;;;;;;;13.05;3.00;;;13.90;67.90;;;;;;4863867;29;20186;-77
2021/10/24 20:00:31;;;;;;;7.45;2.85;;;13.80;68.30;;;;;;4877457;29;20037;-76
2021/10/24 20:02:57;;;;;;;9.55;3.22;;;13.90;68.90;;;;;;4877589;29;20561;-76
2021/10/24 20:05:24;;;;;;;8.13;3.65;;;13.90;69.70;;;;;;4862573;29;20029;-77
2021/10/24 20:07:51;;;;;;;7.40;2.85;;;13.90;70.40;;;;;;4877841;29;20102;-76
2021/10/24 20:10:17;;;;;;;7.28;3.30;;;13.90;71.40;;;;;;4863120;29;20036;-76
2021/10/24 20:12:43;;;;;;;8.77;3.10;;;13.90;72.10;;;;;;4877751;29;20062;-76
2021/10/24 20:15:09;;;;;;;10.23;3.13;;;13.90;72.70;;;;;;4877805;29;20034;-76
2021/10/24 20:17:35;;;;;;;8.13;3.13;;;13.90;73.30;;;;;;4877461;29;20029;-76
2021/10/24 20:20:01;;;;;;;6.95;3.17;;;13.90;73.70;;;;;;4877204;29;20026;-76
2021/10/24 20:22:27;;;;;;;11.05;3.00;;;13.90;74.00;;;;;;4877062;29;20112;-75
2021/10/24 20:24:54;;;;;;;8.55;3.20;;;14.00;74.40;;;;;;4862522;29;20446;-76
2021/10/24 20:27:20;;;;;;;9.07;3.40;;;13.90;74.60;;;;;;4878954;29;20064;-74
2021/10/24 20:29:45;;;;;;;7.57;2.95;;;13.90;74.70;;;;;;4864926;29;20053;-75
2021/10/24 20:32:11;;;;;;;11.43;3.08;;;13.90;74.70;;;;;;4876930;29;20034;-74
2021/10/24 20:34:37;;;;;;;8.70;2.80;;;13.90;74.70;;;;;;4877034;29;20032;-76
2021/10/24 20:37:03;;;;;;;9.15;3.13;;;13.90;75.20;;;;;;4876460;29;20120;-77
2021/10/24 20:39:29;;;;;;;9.43;2.88;;;13.90;74.10;;;;;;4876708;29;20044;-76
2021/10/24 20:41:54;;;;;;;6.78;3.20;;;13.90;73.60;;;;;;4862227;29;20038;-76
2021/10/24 20:44:20;;;;;;;6.93;2.83;;;13.90;74.40;;;;;;4858064;29;20041;-76
2021/10/24 20:46:47;;;;;;;6.35;3.05;;;13.90;74.10;;;;;;4876115;29;20029;-76
2021/10/24 20:49:14;;;;;;;6.93;3.00;;;13.90;74.30;;;;;;4872801;29;20028;-76
2021/10/24 20:51:40;;;;;;;7.88;2.90;;;13.90;74.40;;;;;;4862687;29;20105;-77
2021/10/24 20:54:05;;;;;;;7.32;2.85;;;13.90;74.50;;;;;;4862849;29;20173;-76
2021/10/24 20:56:31;;;;;;;7.40;2.63;;;13.90;74.60;;;;;;4862803;29;20030;-76
2021/10/24 20:58:56;;;;;;;7.05;2.97;;;13.90;74.90;;;;;;4862591;29;20029;-76
2021/10/24 21:01:22;;;;;;;8.30;2.80;;;13.90;75.20;;;;;;4876486;29;20495;-76
2021/10/24 21:03:48;;;;;;;8.18;3.08;;;13.90;75.40;;;;;;4877091;29;20524;-76
2021/10/24 21:06:14;;;;;;;8.60;2.70;;;14.00;75.60;;;;;;4876950;29;20411;-76
2021/10/24 21:08:39;;;;;;;7.85;2.90;;;13.90;75.70;;;;;;4876607;29;20030;-75
2021/10/24 21:11:05;;;;;;;7.13;2.72;;;13.90;75.80;;;;;;4876654;29;20122;-76
2021/10/24 21:13:31;;;;;;;5.75;2.47;;;13.90;75.90;;;;;;4862484;29;20026;-76
2021/10/24 21:15:56;;;;;;;7.10;2.50;;;14.00;76.00;;;;;;4876526;29;20033;-76
2021/10/24 21:18:22;;;;;;;12.70;3.03;;;14.00;76.10;;;;;;4876662;29;20029;-76
2021/10/24 21:20:49;;;;;;;7.13;2.50;;;14.00;76.10;;;;;;4862033;29;20039;-76
2021/10/24 21:23:15;;;;;;;7.57;2.53;;;14.00;76.30;;;;;;4876492;29;20452;-77
2021/10/24 21:25:41;;;;;;;8.93;2.60;;;14.00;76.30;;;;;;4862155;29;20083;-77
2021/10/24 21:28:07;;;;;;;6.97;2.40;;;13.90;76.40;;;;;;4876425;29;20036;-76
2021/10/24 21:30:32;;;;;;;14.85;3.33;;;14.00;76.40;;;;;;4875909;29;20033;-76
2021/10/24 21:32:58;;;;;;;8.13;2.63;;;14.00;76.50;;;;;;4862126;29;20105;-77
2021/10/24 21:35:24;;;;;;;32.70;4.00;;;14.00;76.50;;;;;;4875801;29;20411;-78
2021/10/24 21:37:50;;;;;;;20.23;3.88;;;13.90;76.50;;;;;;4861491;29;20101;-77
2021/10/24 21:40:17;;;;;;;17.58;3.88;;;14.00;76.50;;;;;;4875716;29;20140;-78
2021/10/24 21:42:42;;;;;;;11.80;2.78;;;14.00;76.70;;;;;;4875660;29;20030;-77
2021/10/24 21:45:08;;;;;;;7.07;2.58;;;14.00;76.70;;;;;;4875707;29;20045;-76
2021/10/24 21:47:34;;;;;;;9.35;2.80;;;13.90;76.80;;;;;;4875713;29;20025;-76
2021/10/24 21:49:59;;;;;;;7.93;2.47;;;14.00;77.00;;;;;;4861138;29;20022;-77
2021/10/24 21:52:25;;;;;;;10.38;2.85;;;14.00;77.10;;;;;;4861461;29;20045;-77
2021/10/24 21:54:50;;;;;;;11.05;2.80;;;14.00;77.10;;;;;;4875676;29;20049;-77
2021/10/24 21:57:16;;;;;;;7.78;2.88;;;14.00;77.20;;;;;;4875656;29;20030;-77
2021/10/24 21:59:41;;;;;;;9.10;2.92;;;14.00;77.30;;;;;;4875335;29;20025;-77
2021/10/24 22:02:08;;;;;;;8.07;2.55;;;13.90;77.30;;;;;;4861134;29;20112;-76
2021/10/24 22:04:36;;;;;;;9.57;2.80;;;13.90;77.40;;;;;;4875512;29;20491;-77
2021/10/24 22:07:02;;;;;;;7.70;2.75;;;14.00;77.50;;;;;;4861264;29;20432;-77
2021/10/24 22:09:27;;;;;;;13.57;2.90;;;14.00;77.60;;;;;;4874951;29;20115;-77
2021/10/24 22:11:54;;;;;;;6.18;2.35;;;13.90;77.70;;;;;;4875259;29;20045;-78
2021/10/24 22:14:19;;;;;;;7.82;2.60;;;13.90;77.70;;;;;;4875228;29;20055;-77
2021/10/24 22:16:45;;;;;;;6.15;2.78;;;14.00;77.70;;;;;;4860885;29;20037;-77
2021/10/24 22:19:11;;;;;;;8.68;2.83;;;14.00;77.80;;;;;;4860527;29;20060;-77
2021/10/24 22:21:37;;;;;;;6.60;2.55;;;14.00;78.10;;;;;;4860786;29;20499;-77
2021/10/24 22:24:03;;;;;;;7.57;2.80;;;14.00;77.70;;;;;;4860665;29;20452;-78
2021/10/24 22:26:29;;;;;;;7.88;2.83;;;14.00;77.70;;;;;;4875062;29;20030;-77
2021/10/24 22:28:55;;;;;;;5.65;2.50;;;14.00;77.70;;;;;;4860529;29;20037;-78
2021/10/24 22:31:21;;;;;;;6.00;2.60;;;14.00;77.60;;;;;;4875167;29;20029;-76
2021/10/24 22:33:46;;;;;;;6.57;2.45;;;14.00;77.70;;;;;;4860758;29;20555;-77
2021/10/24 22:36:12;;;;;;;5.13;2.45;;;14.00;78.00;;;;;;4874878;29;20029;-77
2021/10/24 22:38:38;;;;;;;9.48;2.80;;;14.00;77.70;;;;;;4874780;29;20030;-77
2021/10/24 22:41:05;;;;;;;7.47;2.70;;;14.10;77.80;;;;;;4860648;29;20108;-77
2021/10/24 22:43:31;;;;;;;7.68;2.60;;;14.10;77.70;;;;;;4860587;29;20482;-76
2021/10/24 22:45:57;;;;;;;7.82;2.65;;;14.10;77.80;;;;;;4859944;29;20033;-77
2021/10/24 22:48:22;;;;;;;8.52;2.47;;;14.00;77.80;;;;;;4874779;29;20487;-75
2021/10/24 22:50:48;;;;;;;6.25;2.58;;;14.10;77.90;;;;;;4874860;29;20074;-77
2021/10/24 22:53:13;;;;;;;7.78;2.75;;;14.10;78.00;;;;;;4860746;29;20033;-76
2021/10/24 22:55:40;;;;;;;7.93;2.88;;;14.00;77.90;;;;;;4874923;29;20060;-77
2021/10/24 22:58:05;;;;;;;6.47;2.70;;;14.10;78.00;;;;;;4875016;29;20026;-77
2021/10/24 23:00:31;;;;;;;10.32;2.70;;;14.10;78.10;;;;;;4874589;29;20040;-77
2021/10/24 23:02:57;;;;;;;7.88;2.92;;;14.00;78.10;;;;;;4874694;29;20032;-77
2021/10/24 23:05:22;;;;;;;7.72;2.67;;;14.00;78.30;;;;;;4860508;29;20030;-77
2021/10/24 23:07:49;;;;;;;8.77;2.70;;;14.00;78.40;;;;;;4874937;29;20560;-77
2021/10/24 23:10:15;;;;;;;8.55;2.72;;;14.00;78.60;;;;;;4874424;29;20030;-76
2021/10/24 23:12:41;;;;;;;11.38;2.60;;;13.90;78.80;;;;;;4860427;29;20732;-77
2021/10/24 23:15:07;;;;;;;7.03;2.80;;;13.90;78.80;;;;;;4874732;29;20036;-77
2021/10/24 23:17:32;;;;;;;8.93;2.70;;;13.90;78.90;;;;;;4874744;29;20026;-76
2021/10/24 23:19:58;;;;;;;5.90;2.40;;;13.90;79.00;;;;;;4860682;29;20048;-76
2021/10/24 23:22:24;;;;;;;9.65;2.70;;;13.90;79.00;;;;;;4860521;29;20033;-76
2021/10/24 23:24:51;;;;;;;9.50;2.95;;;13.90;79.10;;;;;;4875001;29;20118;-76
2021/10/24 23:27:17;;;;;;;8.95;2.40;;;13.90;79.10;;;;;;4875054;29;20041;-76
2021/10/24 23:29:43;;;;;;;13.43;2.85;;;13.90;79.10;;;;;;4860230;29;20030;-76
2021/10/24 23:32:08;;;;;;;8.07;2.60;;;13.90;79.20;;;;;;4874741;29;20033;-76
2021/10/24 23:34:34;;;;;;;12.27;2.80;;;13.90;79.20;;;;;;4875091;29;20034;-77
2021/10/24 23:36:59;;;;;;;7.75;2.50;;;13.90;79.30;;;;;;4860694;29;20136;-76
2021/10/24 23:39:25;;;;;;;8.55;2.65;;;13.90;79.30;;;;;;4874505;29;20465;-76
2021/10/24 23:41:51;;;;;;;12.88;3.20;;;13.90;79.30;;;;;;4874466;29;20538;-76
2021/10/24 23:44:18;;;;;;;8.20;2.85;;;13.90;79.30;;;;;;4874691;29;20518;-76
2021/10/24 23:46:44;;;;;;;9.20;2.92;;;13.90;79.30;;;;;;4860436;29;20021;-76
2021/10/24 23:49:10;;;;;;;6.60;2.58;;;13.90;79.40;;;;;;4874332;29;20514;-76
2021/10/24 23:51:35;;;;;;;6.40;2.72;;;13.90;79.50;;;;;;4860460;29;20037;-77
2021/10/24 23:54:01;;;;;;;8.05;2.55;;;13.90;79.50;;;;;;4860222;29;20173;-76
2021/10/24 23:56:26;;;;;;;7.25;2.80;;;13.90;79.50;;;;;;4860321;29;20040;-76
2021/10/24 23:58:52;;;;;;;7.22;2.78;;;13.90;79.50;;;;;;4861138;29;20033;-77
